createdAt,value
2023-03-04T00:00:10.140Z,19.80
2023-03-04T00:01:03.294Z,19.30
2023-03-04T00:01:36.587Z,18.70
2023-03-04T00:02:09.819Z,18.70
2023-03-04T00:02:43.298Z,19.10
2023-03-04T00:03:16.696Z,19.30
2023-03-04T00:03:50.076Z,19.50
2023-03-04T00:04:23.366Z,20.10
2023-03-04T00:04:56.676Z,19.40
2023-03-04T00:05:31.364Z,19.50
2023-03-04T00:06:05.362Z,19.70
2023-03-04T00:06:39.386Z,19.30
2023-03-04T00:07:17.020Z,18.50
2023-03-04T00:07:50.595Z,18.60
2023-03-04T00:08:24.109Z,19.60
2023-03-04T00:08:57.874Z,19.00
2023-03-04T00:09:31.228Z,18.90
2023-03-04T00:10:06.130Z,18.50
2023-03-04T00:10:39.421Z,19.20
2023-03-04T00:11:12.643Z,18.40
2023-03-04T00:11:45.947Z,19.40
2023-03-04T00:12:20.417Z,19.10
2023-03-04T00:12:53.719Z,18.60
2023-03-04T00:13:27.105Z,20.30
2023-03-04T00:14:00.884Z,19.70
2023-03-04T00:14:34.364Z,19.40
2023-03-04T00:15:08.761Z,19.00
2023-03-04T00:15:42.075Z,19.70
2023-03-04T00:16:15.629Z,19.00
2023-03-04T00:16:49.391Z,19.00
2023-03-04T00:17:23.116Z,19.10
2023-03-04T00:17:56.594Z,19.60
2023-03-04T00:18:29.932Z,19.80
2023-03-04T00:19:06.285Z,19.20
2023-03-04T00:19:39.704Z,18.10
2023-03-04T00:20:13.819Z,18.50
2023-03-04T00:20:47.792Z,19.20
2023-03-04T00:21:21.922Z,19.20
2023-03-04T00:21:55.237Z,19.10
2023-03-04T00:22:28.595Z,19.80
2023-03-04T00:23:04.404Z,19.80
2023-03-04T00:23:37.831Z,19.10
2023-03-04T00:24:11.127Z,19.00
2023-03-04T00:24:44.566Z,19.80
2023-03-04T00:25:17.961Z,19.30
2023-03-04T00:25:51.263Z,19.60
2023-03-04T00:26:24.593Z,20.30
2023-03-04T00:26:58.052Z,20.40
2023-03-04T00:27:31.403Z,19.50
2023-03-04T00:28:04.963Z,17.80
2023-03-04T00:28:39.487Z,19.70
2023-03-04T00:29:12.926Z,19.50
2023-03-04T00:29:46.292Z,20.00
2023-03-04T00:30:20.291Z,19.20
2023-03-04T00:30:53.789Z,20.10
2023-03-04T00:31:27.157Z,20.00
2023-03-04T00:32:00.725Z,20.00
2023-03-04T00:32:34.299Z,19.80
2023-03-04T00:33:07.759Z,20.70
2023-03-04T00:33:41.086Z,20.80
2023-03-04T00:34:14.538Z,19.90
2023-03-04T00:34:47.964Z,19.40
2023-03-04T00:35:21.427Z,20.50
2023-03-04T00:35:55.015Z,19.70
2023-03-04T00:36:28.761Z,20.10
2023-03-04T00:37:03.975Z,19.90
2023-03-04T00:37:40.355Z,19.50
2023-03-04T00:38:13.794Z,20.00
2023-03-04T00:38:48.996Z,21.40
2023-03-04T00:39:22.541Z,21.10
2023-03-04T00:39:55.901Z,21.80
2023-03-04T00:40:29.294Z,21.70
2023-03-04T00:41:02.766Z,20.60
2023-03-04T00:41:36.316Z,21.70
2023-03-04T00:42:09.579Z,20.40
2023-03-04T00:42:45.195Z,21.30
2023-03-04T00:43:18.495Z,20.80
2023-03-04T00:43:52.004Z,20.80
2023-03-04T00:44:25.416Z,22.30
2023-03-04T00:44:59.168Z,21.40
2023-03-04T00:45:32.499Z,21.60
2023-03-04T00:46:05.822Z,22.00
2023-03-04T00:46:39.124Z,21.90
2023-03-04T00:47:12.584Z,23.00
2023-03-04T00:47:45.894Z,22.30
2023-03-04T00:48:19.224Z,21.70
2023-03-04T00:48:52.582Z,22.20
2023-03-04T00:49:26.131Z,22.20
2023-03-04T00:49:59.395Z,23.10
2023-03-04T00:50:32.794Z,22.00
2023-03-04T00:51:06.827Z,23.00
2023-03-04T00:51:40.076Z,23.10
2023-03-04T00:52:13.313Z,24.10
2023-03-04T00:52:46.656Z,25.80
2023-03-04T00:53:20.780Z,23.60
2023-03-04T00:53:54.068Z,25.80
2023-03-04T00:54:27.477Z,25.60
2023-03-04T00:55:00.759Z,26.00
2023-03-04T00:55:34.067Z,25.40
2023-03-04T00:56:07.867Z,23.70
2023-03-04T00:56:41.141Z,25.60
2023-03-04T00:57:14.559Z,25.50
2023-03-04T00:57:47.808Z,24.90
2023-03-04T00:58:21.776Z,26.00
2023-03-04T00:58:55.473Z,26.20
2023-03-04T00:59:28.760Z,28.70
2023-03-04T01:00:02.218Z,28.20
2023-03-04T01:00:35.750Z,27.70
2023-03-04T01:01:09.191Z,30.00
2023-03-04T01:01:42.629Z,29.90
2023-03-04T01:02:15.965Z,27.30
2023-03-04T01:02:49.449Z,26.90
2023-03-04T01:03:22.807Z,27.50
2023-03-04T01:03:56.280Z,30.10
2023-03-04T01:04:29.600Z,33.10
2023-03-04T01:05:02.892Z,32.10
2023-03-04T01:05:36.409Z,35.40
2023-03-04T01:06:09.730Z,36.00
2023-03-04T01:06:43.066Z,36.10
2023-03-04T01:07:16.429Z,35.70
2023-03-04T01:07:49.697Z,32.70
2023-03-04T01:08:22.894Z,35.40
2023-03-04T01:08:56.251Z,35.20
2023-03-04T01:09:29.478Z,36.00
2023-03-04T01:10:02.885Z,35.90
2023-03-04T01:10:36.446Z,36.90
2023-03-04T01:11:10.464Z,36.90
2023-03-04T01:11:43.772Z,35.00
2023-03-04T01:12:18.644Z,36.50
2023-03-04T01:12:54.864Z,35.40
2023-03-04T01:13:29.324Z,36.70
2023-03-04T01:14:02.622Z,36.90
2023-03-04T01:14:36.442Z,35.80
2023-03-04T01:15:12.548Z,36.20
2023-03-04T01:15:45.909Z,34.40
2023-03-04T01:16:19.434Z,36.30
2023-03-04T01:16:54.079Z,36.20
2023-03-04T01:17:28.590Z,34.70
2023-03-04T01:18:02.017Z,34.70
2023-03-04T01:18:35.736Z,35.20
2023-03-04T01:19:09.274Z,34.40
2023-03-04T01:19:42.952Z,35.40
2023-03-04T01:20:16.460Z,36.70
2023-03-04T01:20:49.881Z,36.20
2023-03-04T01:21:23.386Z,37.00
2023-03-04T01:21:56.634Z,35.60
2023-03-04T01:22:30.049Z,35.90
2023-03-04T01:23:03.307Z,37.00
2023-03-04T01:23:36.830Z,37.50
2023-03-04T01:24:10.075Z,35.60
2023-03-04T01:24:46.548Z,35.50
2023-03-04T01:25:20.143Z,36.00
2023-03-04T01:25:54.534Z,36.00
2023-03-04T01:26:27.822Z,39.50
2023-03-04T01:27:01.124Z,37.50
2023-03-04T01:27:34.829Z,38.70
2023-03-04T01:28:08.247Z,38.60
2023-03-04T01:28:41.616Z,38.60
2023-03-04T01:29:14.991Z,38.70
2023-03-04T01:29:48.320Z,38.70
2023-03-04T01:30:21.638Z,38.60
2023-03-04T01:30:55.359Z,40.20
2023-03-04T01:31:30.528Z,39.10
2023-03-04T01:32:04.552Z,39.20
2023-03-04T01:32:37.964Z,39.50
2023-03-04T01:33:11.335Z,41.60
2023-03-04T01:33:44.804Z,40.00
2023-03-04T01:34:18.320Z,40.10
2023-03-04T01:34:51.785Z,40.50
2023-03-04T01:35:25.218Z,40.30
2023-03-04T01:35:58.644Z,39.50
2023-03-04T01:36:32.219Z,39.30
2023-03-04T01:37:05.560Z,40.40
2023-03-04T01:37:38.995Z,40.80
2023-03-04T01:38:13.068Z,40.50
2023-03-04T01:38:46.526Z,39.30
2023-03-04T01:39:19.998Z,39.80
2023-03-04T01:39:53.442Z,39.20
2023-03-04T01:40:27.164Z,38.30
2023-03-04T01:41:02.212Z,39.50
2023-03-04T01:41:35.940Z,38.50
2023-03-04T01:42:32.070Z,39.10
2023-03-04T01:43:06.610Z,36.10
2023-03-04T01:43:40.668Z,37.60
2023-03-04T01:44:14.118Z,38.60
2023-03-04T01:44:48.820Z,38.00
2023-03-04T01:45:22.409Z,37.70
2023-03-04T01:45:57.373Z,39.40
2023-03-04T01:46:32.472Z,37.60
2023-03-04T01:47:05.941Z,38.00
2023-03-04T01:47:39.470Z,37.60
2023-03-04T01:48:17.293Z,37.50
2023-03-04T01:48:50.726Z,36.80
2023-03-04T01:49:24.101Z,39.50
2023-03-04T01:49:58.838Z,40.30
2023-03-04T01:50:35.206Z,37.30
2023-03-04T01:51:16.958Z,38.70
2023-03-04T01:51:53.266Z,37.80
2023-03-04T01:52:29.294Z,37.00
2023-03-04T01:53:03.941Z,38.40
2023-03-04T01:53:37.440Z,39.60
2023-03-04T01:54:10.852Z,39.80
2023-03-04T01:54:44.068Z,38.50
2023-03-04T01:55:22.902Z,39.60
2023-03-04T01:56:24.451Z,38.50
2023-03-04T01:57:00.489Z,36.00
2023-03-04T01:57:35.708Z,37.20
2023-03-04T01:58:12.133Z,37.30
2023-03-04T01:58:45.872Z,38.00
2023-03-04T01:59:24.790Z,38.20
2023-03-04T02:00:34.896Z,37.80
2023-03-04T02:01:11.858Z,35.10
2023-03-04T02:01:56.977Z,35.80
2023-03-04T02:02:30.417Z,37.50
2023-03-04T02:03:12.996Z,37.60
2023-03-04T02:03:46.273Z,38.30
2023-03-04T02:04:24.342Z,39.90
2023-03-04T02:04:57.803Z,39.70
2023-03-04T02:05:31.571Z,38.60
2023-03-04T02:06:05.088Z,39.80
2023-03-04T02:06:41.449Z,41.20
2023-03-04T02:07:14.825Z,39.80
2023-03-04T02:07:49.467Z,40.30
2023-03-04T02:08:24.782Z,40.20
2023-03-04T02:08:58.588Z,40.00
2023-03-04T02:09:33.336Z,39.70
2023-03-04T02:10:07.214Z,39.30
2023-03-04T02:10:43.034Z,40.30
2023-03-04T02:11:16.545Z,39.90
2023-03-04T02:11:51.468Z,40.60
2023-03-04T02:12:24.925Z,39.70
2023-03-04T02:12:59.674Z,40.30
2023-03-04T02:13:34.426Z,41.20
2023-03-04T02:14:08.540Z,41.20
2023-03-04T02:14:41.853Z,41.60
2023-03-04T02:15:16.007Z,41.60
2023-03-04T02:15:49.639Z,41.30
2023-03-04T02:16:23.135Z,41.70
2023-03-04T02:16:56.594Z,42.10
2023-03-04T02:17:29.808Z,44.40
2023-03-04T02:18:14.287Z,42.60
2023-03-04T02:18:48.884Z,42.10
2023-03-04T02:19:47.390Z,44.90
2023-03-04T02:20:27.861Z,38.30
2023-03-04T02:21:34.428Z,40.30
2023-03-04T02:22:07.950Z,36.80
2023-03-04T02:23:01.573Z,41.40
2023-03-04T02:23:55.957Z,38.40
2023-03-04T02:24:55.333Z,39.30
2023-03-04T02:26:04.316Z,35.50
2023-03-04T02:26:41.511Z,34.10
2023-03-04T02:27:15.060Z,40.10
2023-03-04T02:27:48.278Z,42.60
2023-03-04T02:28:22.132Z,43.30
2023-03-04T02:28:58.237Z,43.80
2023-03-04T02:29:31.692Z,44.20
2023-03-04T02:30:05.978Z,44.90
2023-03-04T02:30:39.511Z,45.00
2023-03-04T02:31:20.843Z,44.60
2023-03-04T02:31:55.255Z,42.80
2023-03-04T02:32:28.607Z,45.40
2023-03-04T02:33:02.007Z,45.10
2023-03-04T02:33:36.317Z,45.90
2023-03-04T02:34:19.442Z,46.40
2023-03-04T02:34:53.076Z,44.90
2023-03-04T02:35:27.324Z,43.80
2023-03-04T02:36:01.103Z,45.10
2023-03-04T02:36:36.651Z,45.80
2023-03-04T02:37:10.838Z,46.40
2023-03-04T02:37:44.512Z,44.50
2023-03-04T02:38:17.866Z,46.90
2023-03-04T02:38:53.813Z,44.80
2023-03-04T02:39:56.285Z,46.70
2023-03-04T02:40:34.528Z,42.00
2023-03-04T02:41:14.303Z,46.30
2023-03-04T02:41:49.089Z,41.90
2023-03-04T02:42:22.808Z,46.10
2023-03-04T02:42:58.335Z,45.80
2023-03-04T02:43:31.852Z,45.50
2023-03-04T02:44:17.171Z,46.50
2023-03-04T02:45:00.195Z,45.40
2023-03-04T02:45:33.363Z,42.90
2023-03-04T02:46:06.900Z,44.80
2023-03-04T02:46:40.371Z,46.10
2023-03-04T02:47:20.629Z,44.20
2023-03-04T02:47:54.629Z,44.90
2023-03-04T02:48:27.972Z,45.10
2023-03-04T02:49:01.251Z,45.40
2023-03-04T02:51:26.580Z,38.30
2023-03-04T02:52:07.290Z,44.60
2023-03-04T02:52:40.818Z,44.00
2023-03-04T02:53:15.560Z,46.10
2023-03-04T02:53:49.346Z,46.00
2023-03-04T02:54:24.588Z,46.30
2023-03-04T02:54:58.020Z,45.80
2023-03-04T02:55:32.532Z,46.60
2023-03-04T02:56:06.463Z,45.80
2023-03-04T02:56:49.233Z,45.80
2023-03-04T02:57:59.844Z,41.90
2023-03-04T02:58:33.490Z,43.50
2023-03-04T02:59:07.217Z,45.80
2023-03-04T02:59:41.569Z,44.30
2023-03-04T03:00:16.548Z,45.60
2023-03-04T03:00:50.216Z,46.30
2023-03-04T03:01:28.027Z,46.50
2023-03-04T03:02:01.645Z,45.40
2023-03-04T03:02:35.310Z,46.10
2023-03-04T03:03:10.788Z,45.40
2023-03-04T03:03:44.507Z,47.40
2023-03-04T03:04:19.096Z,45.60
2023-03-04T03:04:52.764Z,47.40
2023-03-04T03:05:30.301Z,46.20
2023-03-04T03:06:04.402Z,46.20
2023-03-04T03:06:38.032Z,45.90
2023-03-04T03:07:11.468Z,46.20
2023-03-04T03:07:45.214Z,46.80
2023-03-04T03:08:19.142Z,46.60
2023-03-04T03:08:52.716Z,47.70
2023-03-04T03:09:26.233Z,48.30
2023-03-04T03:09:59.601Z,47.20
2023-03-04T03:10:33.712Z,47.00
2023-03-04T03:11:08.986Z,47.00
2023-03-04T03:11:43.115Z,45.90
2023-03-04T03:12:16.757Z,46.30
2023-03-04T03:12:50.203Z,47.50
2023-03-04T03:13:23.872Z,46.90
2023-03-04T03:13:57.414Z,47.50
2023-03-04T03:14:31.123Z,47.50
2023-03-04T03:15:05.168Z,46.70
2023-03-04T03:15:42.579Z,46.40
2023-03-04T03:16:16.362Z,47.10
2023-03-04T03:16:52.964Z,44.90
2023-03-04T03:17:26.488Z,46.80
2023-03-04T03:18:00.148Z,46.60
2023-03-04T03:18:33.781Z,45.40
2023-03-04T03:19:07.490Z,46.80
2023-03-04T03:19:41.279Z,44.90
2023-03-04T03:20:15.741Z,46.50
2023-03-04T03:20:51.707Z,46.20
2023-03-04T03:21:25.229Z,46.80
2023-03-04T03:21:58.799Z,46.20
2023-03-04T03:22:33.028Z,47.30
2023-03-04T03:23:06.683Z,45.30
2023-03-04T03:23:40.666Z,47.10
2023-03-04T03:24:14.398Z,45.80
2023-03-04T03:24:47.914Z,47.10
2023-03-04T03:25:21.354Z,47.20
2023-03-04T03:25:54.871Z,46.10
2023-03-04T03:26:28.488Z,45.20
2023-03-04T03:27:02.132Z,47.00
2023-03-04T03:27:36.442Z,47.60
2023-03-04T03:28:09.974Z,48.10
2023-03-04T03:28:44.326Z,47.50
2023-03-04T03:29:17.892Z,48.90
2023-03-04T03:29:51.697Z,49.30
2023-03-04T03:30:25.480Z,49.10
2023-03-04T03:30:59.612Z,48.20
2023-03-04T03:31:33.526Z,47.90
2023-03-04T03:32:07.135Z,48.10
2023-03-04T03:32:40.721Z,47.90
2023-03-04T03:33:14.283Z,45.30
2023-03-04T03:33:48.982Z,50.00
2023-03-04T03:34:22.917Z,49.00
2023-03-04T03:34:56.634Z,49.90
2023-03-04T03:35:30.293Z,47.00
2023-03-04T03:36:04.972Z,50.10
2023-03-04T03:36:39.553Z,49.30
2023-03-04T03:37:13.263Z,50.00
2023-03-04T03:37:46.858Z,49.80
2023-03-04T03:38:20.858Z,51.10
2023-03-04T03:38:54.313Z,49.70
2023-03-04T03:39:27.931Z,50.10
2023-03-04T03:40:01.397Z,50.30
2023-03-04T03:40:35.056Z,47.70
2023-03-04T03:41:08.669Z,49.40
2023-03-04T03:41:42.530Z,49.40
2023-03-04T03:42:16.049Z,50.20
2023-03-04T03:42:49.572Z,49.70
2023-03-04T03:43:23.290Z,51.00
2023-03-04T03:43:57.197Z,50.20
2023-03-04T03:44:31.223Z,49.00
2023-03-04T03:45:05.140Z,48.60
2023-03-04T03:45:38.696Z,50.40
2023-03-04T03:46:12.366Z,49.80
2023-03-04T03:46:47.234Z,50.00
2023-03-04T03:47:20.941Z,48.70
2023-03-04T03:47:55.331Z,50.40
2023-03-04T03:48:28.967Z,50.20
2023-03-04T03:49:02.562Z,50.80
2023-03-04T03:49:36.332Z,45.30
2023-03-04T03:50:10.253Z,48.90
2023-03-04T03:50:43.941Z,49.90
2023-03-04T03:51:17.477Z,48.70
2023-03-04T03:51:51.201Z,50.60
2023-03-04T03:52:24.722Z,49.80
2023-03-04T03:52:58.137Z,49.10
2023-03-04T03:53:31.712Z,51.00
2023-03-04T03:54:05.287Z,48.50
2023-03-04T03:54:38.870Z,50.10
2023-03-04T03:55:15.129Z,49.00
2023-03-04T03:55:48.666Z,50.60
2023-03-04T03:56:24.909Z,49.00
2023-03-04T03:56:58.353Z,48.40
2023-03-04T03:57:31.809Z,49.20
2023-03-04T03:58:08.292Z,48.40
2023-03-04T03:58:41.886Z,48.90
2023-03-04T03:59:15.413Z,48.00
2023-03-04T03:59:48.976Z,48.70
2023-03-04T04:00:23.099Z,48.40
2023-03-04T04:00:58.401Z,46.50
2023-03-04T04:01:33.754Z,46.60
2023-03-04T04:02:07.315Z,45.90
2023-03-04T04:02:41.252Z,46.60
2023-03-04T04:03:16.159Z,47.30
2023-03-04T04:03:49.513Z,48.20
2023-03-04T04:04:23.233Z,48.60
2023-03-04T04:04:56.768Z,49.20
2023-03-04T04:05:30.194Z,48.90
2023-03-04T04:06:04.288Z,48.90
2023-03-04T04:06:37.727Z,47.70
2023-03-04T04:07:11.214Z,47.80
2023-03-04T04:07:44.776Z,48.30
2023-03-04T04:08:20.392Z,49.00
2023-03-04T04:08:53.867Z,48.20
2023-03-04T04:09:27.290Z,46.90
2023-03-04T04:10:00.756Z,47.40
2023-03-04T04:10:34.079Z,48.40
2023-03-04T04:11:10.453Z,47.30
2023-03-04T04:11:43.849Z,45.10
2023-03-04T04:12:18.572Z,47.70
2023-03-04T04:12:51.969Z,47.60
2023-03-04T04:13:25.465Z,48.70
2023-03-04T04:13:58.902Z,47.20
2023-03-04T04:14:32.709Z,47.90
2023-03-04T04:15:06.897Z,49.80
2023-03-04T04:15:40.313Z,48.10
2023-03-04T04:16:13.682Z,48.60
2023-03-04T04:16:47.181Z,47.40
2023-03-04T04:17:20.582Z,48.10
2023-03-04T04:17:54.274Z,47.40
2023-03-04T04:18:27.979Z,47.50
2023-03-04T04:19:01.396Z,49.80
2023-03-04T04:19:35.329Z,47.60
2023-03-04T04:20:09.647Z,48.10
2023-03-04T04:20:43.079Z,48.00
2023-03-04T04:21:16.562Z,48.10
2023-03-04T04:21:50.402Z,47.80
2023-03-04T04:22:23.980Z,48.30
2023-03-04T04:22:57.577Z,50.50
2023-03-04T04:23:31.660Z,48.40
2023-03-04T04:24:07.659Z,46.90
2023-03-04T04:24:41.148Z,50.00
2023-03-04T04:25:14.737Z,49.30
2023-03-04T04:25:48.236Z,48.40
2023-03-04T04:26:21.840Z,46.60
2023-03-04T04:26:55.571Z,51.00
2023-03-04T04:27:29.080Z,48.30
2023-03-04T04:28:02.713Z,48.10
2023-03-04T04:28:38.405Z,51.20
2023-03-04T04:29:14.943Z,50.40
2023-03-04T04:29:53.844Z,46.80
2023-03-04T04:30:27.449Z,49.50
2023-03-04T04:31:01.110Z,47.60
2023-03-04T04:31:34.963Z,49.90
2023-03-04T04:32:09.264Z,47.60
2023-03-04T04:32:42.791Z,49.00
2023-03-04T04:33:17.109Z,52.30
2023-03-04T04:33:50.592Z,51.50
2023-03-04T04:34:24.111Z,49.40
2023-03-04T04:34:57.715Z,50.50
2023-03-04T04:35:35.902Z,52.80
2023-03-04T04:36:14.925Z,52.60
2023-03-04T04:36:48.489Z,50.20
2023-03-04T04:37:21.996Z,50.70
2023-03-04T04:37:55.376Z,50.10
2023-03-04T04:38:28.832Z,50.40
2023-03-04T04:39:02.714Z,51.20
2023-03-04T04:39:36.619Z,51.30
2023-03-04T04:40:10.684Z,49.10
2023-03-04T04:40:44.080Z,50.70
2023-03-04T04:41:24.721Z,51.30
2023-03-04T04:41:58.264Z,47.50
2023-03-04T04:42:31.815Z,48.60
2023-03-04T04:43:05.323Z,50.90
2023-03-04T04:43:38.779Z,51.10
2023-03-04T04:44:13.413Z,50.90
2023-03-04T04:44:46.858Z,52.50
2023-03-04T04:45:20.229Z,51.10
2023-03-04T04:45:53.836Z,51.50
2023-03-04T04:46:27.407Z,52.50
2023-03-04T04:47:00.973Z,52.90
2023-03-04T04:47:34.846Z,52.80
2023-03-04T04:48:09.236Z,52.60
2023-03-04T04:48:42.895Z,52.50
2023-03-04T04:49:16.402Z,49.60
2023-03-04T04:49:50.003Z,51.90
2023-03-04T04:50:24.908Z,50.40
2023-03-04T04:50:59.835Z,49.80
2023-03-04T04:51:35.922Z,51.60
2023-03-04T04:52:09.460Z,50.80
2023-03-04T04:52:43.085Z,51.10
2023-03-04T04:53:16.531Z,51.10
2023-03-04T04:53:50.003Z,50.20
2023-03-04T04:54:26.403Z,51.20
2023-03-04T04:55:00.015Z,49.90
2023-03-04T04:55:34.897Z,51.30
2023-03-04T04:56:16.494Z,49.70
2023-03-04T04:56:49.903Z,49.80
2023-03-04T04:57:26.202Z,49.50
2023-03-04T04:57:59.613Z,48.20
2023-03-04T04:58:33.252Z,49.20
2023-03-04T04:59:10.656Z,49.00
2023-03-04T04:59:44.224Z,47.20
2023-03-04T05:00:19.359Z,47.70
2023-03-04T05:00:52.850Z,47.50
2023-03-04T05:01:26.680Z,49.10
2023-03-04T05:02:00.181Z,48.90
2023-03-04T05:02:37.477Z,49.30
2023-03-04T05:03:11.031Z,47.80
2023-03-04T05:03:44.637Z,48.10
2023-03-04T05:04:18.309Z,47.00
2023-03-04T05:04:51.889Z,48.00
2023-03-04T05:05:25.582Z,48.50
2023-03-04T05:05:59.026Z,50.10
2023-03-04T05:06:32.744Z,49.50
2023-03-04T05:07:06.691Z,50.30
2023-03-04T05:07:40.339Z,48.60
2023-03-04T05:08:14.112Z,48.70
2023-03-04T05:08:48.503Z,49.30
2023-03-04T05:09:23.257Z,48.00
2023-03-04T05:09:56.848Z,47.30
2023-03-04T05:10:30.664Z,48.60
2023-03-04T05:11:05.334Z,47.70
2023-03-04T05:11:38.853Z,50.70
2023-03-04T05:12:12.412Z,49.60
2023-03-04T05:12:46.160Z,50.70
2023-03-04T05:13:20.211Z,48.00
2023-03-04T05:13:53.822Z,48.20
2023-03-04T05:14:27.291Z,47.60
2023-03-04T05:15:01.396Z,47.00
2023-03-04T05:15:35.004Z,46.90
2023-03-04T05:16:09.257Z,47.70
2023-03-04T05:16:42.677Z,49.40
2023-03-04T05:17:16.139Z,49.10
2023-03-04T05:17:49.529Z,48.80
2023-03-04T05:18:25.021Z,47.80
2023-03-04T05:18:58.489Z,49.40
2023-03-04T05:19:31.933Z,47.90
2023-03-04T05:20:07.384Z,48.10
2023-03-04T05:20:40.828Z,46.00
2023-03-04T05:21:14.756Z,49.40
2023-03-04T05:21:48.943Z,49.20
2023-03-04T05:22:22.431Z,47.70
2023-03-04T05:22:56.268Z,48.70
2023-03-04T05:23:32.213Z,46.80
2023-03-04T05:24:05.989Z,48.40
2023-03-04T05:24:39.550Z,48.50
2023-03-04T05:25:13.047Z,47.20
2023-03-04T05:25:46.972Z,46.40
2023-03-04T05:26:20.483Z,47.70
2023-03-04T05:26:53.875Z,46.10
2023-03-04T05:27:27.337Z,47.40
2023-03-04T05:28:02.299Z,47.10
2023-03-04T05:28:36.121Z,45.10
2023-03-04T05:29:09.599Z,45.40
2023-03-04T05:29:44.928Z,46.30
2023-03-04T05:30:18.734Z,44.60
2023-03-04T05:30:52.289Z,45.50
2023-03-04T05:31:26.019Z,47.00
2023-03-04T05:31:59.490Z,45.70
2023-03-04T05:32:32.952Z,45.70
2023-03-04T05:33:09.034Z,44.10
2023-03-04T05:33:42.564Z,45.00
2023-03-04T05:34:16.155Z,46.00
2023-03-04T05:34:49.649Z,47.30
2023-03-04T05:35:23.267Z,45.50
2023-03-04T05:35:56.948Z,47.10
2023-03-04T05:36:30.537Z,45.70
2023-03-04T05:37:03.954Z,47.00
2023-03-04T05:37:37.521Z,46.40
2023-03-04T05:38:13.836Z,45.10
2023-03-04T05:38:47.519Z,43.40
2023-03-04T05:39:22.565Z,43.60
2023-03-04T05:40:29.654Z,39.20
2023-03-04T05:41:06.504Z,40.70
2023-03-04T05:41:40.164Z,41.60
2023-03-04T05:42:15.958Z,42.80
2023-03-04T05:42:49.492Z,43.70
2023-03-04T05:43:23.665Z,43.70
2023-03-04T05:43:57.449Z,43.10
2023-03-04T05:44:31.650Z,43.40
2023-03-04T05:45:05.755Z,42.80
2023-03-04T05:45:40.204Z,43.90
2023-03-04T05:46:15.604Z,43.00
2023-03-04T05:46:49.354Z,48.60
2023-03-04T05:47:23.001Z,45.90
2023-03-04T05:47:56.646Z,43.70
2023-03-04T05:48:30.307Z,44.00
2023-03-04T05:49:04.061Z,44.60
2023-03-04T05:49:37.709Z,44.10
2023-03-04T05:50:12.163Z,44.20
2023-03-04T05:50:45.943Z,43.00
2023-03-04T05:51:21.103Z,43.10
2023-03-04T05:51:54.741Z,44.10
2023-03-04T05:52:28.333Z,43.90
2023-03-04T05:53:02.004Z,42.50
2023-03-04T05:53:39.611Z,43.80
2023-03-04T05:54:13.448Z,41.90
2023-03-04T05:54:47.015Z,43.80
2023-03-04T05:55:20.737Z,42.10
2023-03-04T05:55:54.350Z,42.10
2023-03-04T05:56:30.169Z,42.00
2023-03-04T05:57:03.895Z,40.60
2023-03-04T05:57:37.410Z,41.30
2023-03-04T05:58:11.018Z,41.20
2023-03-04T05:58:45.231Z,41.70
2023-03-04T05:59:20.954Z,40.70
2023-03-04T05:59:54.568Z,40.30
2023-03-04T06:00:28.495Z,41.50
2023-03-04T06:01:02.155Z,41.40
2023-03-04T06:01:35.864Z,42.60
2023-03-04T06:02:09.489Z,40.00
2023-03-04T06:02:44.837Z,41.20
2023-03-04T06:03:21.308Z,39.90
2023-03-04T06:03:54.915Z,40.70
2023-03-04T06:04:28.441Z,41.60
2023-03-04T06:05:02.268Z,40.10
2023-03-04T06:05:36.013Z,40.70
2023-03-04T06:06:10.260Z,40.30
2023-03-04T06:06:44.416Z,38.80
2023-03-04T06:07:17.974Z,40.60
2023-03-04T06:07:51.389Z,41.40
2023-03-04T06:08:25.113Z,40.50
2023-03-04T06:08:59.331Z,41.50
2023-03-04T06:09:33.900Z,40.80
2023-03-04T06:10:08.168Z,40.70
2023-03-04T06:10:42.301Z,41.40
2023-03-04T06:11:15.881Z,42.40
2023-03-04T06:11:49.477Z,40.40
2023-03-04T06:12:23.032Z,42.40
2023-03-04T06:12:56.598Z,40.10
2023-03-04T06:13:30.290Z,41.30
2023-03-04T06:14:04.267Z,40.10
2023-03-04T06:14:37.731Z,39.80
2023-03-04T06:15:12.442Z,41.60
2023-03-04T06:15:46.323Z,39.90
2023-03-04T06:16:22.450Z,40.40
2023-03-04T06:16:56.082Z,40.20
2023-03-04T06:17:30.659Z,41.40
2023-03-04T06:18:04.439Z,41.40
2023-03-04T06:18:38.638Z,40.80
2023-03-04T06:19:12.170Z,42.30
2023-03-04T06:19:45.806Z,41.90
2023-03-04T06:20:19.403Z,40.00
2023-03-04T06:21:00.085Z,40.90
2023-03-04T06:21:33.690Z,38.70
2023-03-04T06:22:07.712Z,40.20
2023-03-04T06:22:41.491Z,40.00
2023-03-04T06:23:15.676Z,41.60
2023-03-04T06:23:49.367Z,42.60
2023-03-04T06:24:22.932Z,40.10
2023-03-04T06:24:56.444Z,40.70
2023-03-04T06:25:30.550Z,41.00
2023-03-04T06:26:05.560Z,38.00
2023-03-04T06:26:39.180Z,40.50
2023-03-04T06:27:13.724Z,39.10
2023-03-04T06:27:48.681Z,39.90
2023-03-04T06:28:25.148Z,39.60
2023-03-04T06:28:58.705Z,39.10
2023-03-04T06:29:32.529Z,39.50
2023-03-04T06:30:06.941Z,39.80
2023-03-04T06:30:40.452Z,38.70
2023-03-04T06:31:14.569Z,38.10
2023-03-04T06:31:48.507Z,39.90
2023-03-04T06:32:22.113Z,39.80
2023-03-04T06:32:55.656Z,38.40
2023-03-04T06:33:29.355Z,38.80
2023-03-04T06:34:02.870Z,39.70
2023-03-04T06:34:36.568Z,39.50
2023-03-04T06:35:11.824Z,39.20
2023-03-04T06:35:45.392Z,38.80
2023-03-04T06:36:18.999Z,38.30
2023-03-04T06:36:54.276Z,37.40
2023-03-04T06:37:27.898Z,38.20
2023-03-04T06:38:01.505Z,39.00
2023-03-04T06:38:35.729Z,38.90
2023-03-04T06:39:09.946Z,39.40
2023-03-04T06:39:43.544Z,38.80
2023-03-04T06:40:17.499Z,40.40
2023-03-04T06:40:51.157Z,38.20
2023-03-04T06:41:24.698Z,37.40
2023-03-04T06:41:58.340Z,38.90
2023-03-04T06:42:31.932Z,38.50
2023-03-04T06:43:05.493Z,39.00
2023-03-04T06:43:40.586Z,39.60
2023-03-04T06:44:14.071Z,39.40
2023-03-04T06:44:50.150Z,38.60
2023-03-04T06:45:23.842Z,37.60
2023-03-04T06:45:57.389Z,38.20
2023-03-04T06:46:33.309Z,35.80
2023-03-04T06:47:07.616Z,35.60
2023-03-04T06:47:41.047Z,36.20
2023-03-04T06:48:14.488Z,38.60
2023-03-04T06:48:47.999Z,37.20
2023-03-04T06:49:21.916Z,38.60
2023-03-04T06:49:55.645Z,37.10
2023-03-04T06:50:29.358Z,35.40
2023-03-04T06:51:10.509Z,36.70
2023-03-04T06:52:17.666Z,33.10
2023-03-04T06:52:51.577Z,34.70
2023-03-04T06:53:25.081Z,34.90
2023-03-04T06:54:01.145Z,35.80
2023-03-04T06:54:34.575Z,36.10
2023-03-04T06:55:09.317Z,35.80
2023-03-04T06:55:42.965Z,34.50
2023-03-04T06:56:16.712Z,31.70
2023-03-04T06:56:51.373Z,34.60
2023-03-04T06:57:24.956Z,34.90
2023-03-04T06:57:58.391Z,33.60
2023-03-04T06:58:34.137Z,33.90
2023-03-04T06:59:07.650Z,34.70
2023-03-04T06:59:41.396Z,34.30
2023-03-04T07:00:20.572Z,33.60
2023-03-04T07:00:54.270Z,30.10
2023-03-04T07:01:29.342Z,32.80
2023-03-04T07:02:03.087Z,28.70
2023-03-04T07:02:36.772Z,32.80
2023-03-04T07:03:12.896Z,32.50
2023-03-04T07:03:47.958Z,32.30
2023-03-04T07:04:23.099Z,33.10
2023-03-04T07:04:57.707Z,31.50
2023-03-04T07:05:31.688Z,31.80
2023-03-04T07:06:05.326Z,32.90
2023-03-04T07:06:38.836Z,32.20
2023-03-04T07:07:12.591Z,32.30
2023-03-04T07:07:46.073Z,31.70
2023-03-04T07:08:21.714Z,31.30
2023-03-04T07:09:01.648Z,31.70
2023-03-04T07:09:35.561Z,30.90
2023-03-04T07:10:10.934Z,30.60
2023-03-04T07:10:46.512Z,31.30
2023-03-04T07:11:23.581Z,30.90
2023-03-04T07:11:59.969Z,30.40
2023-03-04T07:12:37.803Z,30.70
2023-03-04T07:13:11.471Z,30.50
2023-03-04T07:13:45.395Z,31.10
2023-03-04T07:14:18.873Z,29.90
2023-03-04T07:14:52.391Z,31.70
2023-03-04T07:15:25.838Z,30.40
2023-03-04T07:16:00.836Z,31.40
2023-03-04T07:16:38.206Z,29.60
2023-03-04T07:17:16.049Z,29.80
2023-03-04T07:17:49.532Z,30.10
2023-03-04T07:18:23.178Z,29.70
2023-03-04T07:18:58.441Z,29.70
2023-03-04T07:19:34.843Z,28.40
2023-03-04T07:20:08.898Z,27.50
2023-03-04T07:20:42.490Z,26.60
2023-03-04T07:21:18.055Z,26.60
2023-03-04T07:21:54.152Z,27.20
2023-03-04T07:22:27.622Z,28.00
2023-03-04T07:23:01.194Z,27.00
2023-03-04T07:23:38.944Z,28.70
2023-03-04T07:24:14.918Z,27.50
2023-03-04T07:24:54.533Z,27.40
2023-03-04T07:25:28.198Z,26.70
2023-03-04T07:26:01.702Z,27.70
2023-03-04T07:26:35.358Z,26.90
2023-03-04T07:27:08.769Z,26.30
2023-03-04T07:27:42.293Z,27.30
2023-03-04T07:28:18.218Z,25.90
2023-03-04T07:28:53.080Z,24.50
2023-03-04T07:29:28.536Z,23.60